sensor_id;sensor_type;location;lat;lon;timestamp;P1;durP1;ratioP1;P2;durP2;ratioP2
68523;SDS011;55524;51.380;13.372;2022-10-31T00:04:10;7.63;;;3.53;;
68523;SDS011;55524;51.380;13.372;2022-10-31T00:06:37;10.30;;;3.63;;
68523;SDS011;55524;51.380;13.372;2022-10-31T00:09:04;9.30;;;3.38;;
68523;SDS011;55524;51.380;13.372;2022-10-31T00:11:31;5.95;;;3.65;;
68523;SDS011;55524;51.380;13.372;2022-10-31T00:13:57;11.55;;;3.53;;
68523;SDS011;55524;51.380;13.372;2022-10-31T00:16:25;6.18;;;3.60;;
68523;SDS011;55524;51.380;13.372;2022-10-31T00:18:56;8.80;;;3.70;;
68523;SDS011;55524;51.380;13.372;2022-10-31T00:21:25;5.28;;;3.28;;
68523;SDS011;55524;51.380;13.372;2022-10-31T00:23:56;10.35;;;3.33;;
68523;SDS011;55524;51.380;13.372;2022-10-31T00:26:23;8.38;;;3.78;;
68523;SDS011;55524;51.380;13.372;2022-10-31T00:28:51;9.20;;;3.70;;
68523;SDS011;55524;51.380;13.372;2022-10-31T00:31:18;7.50;;;3.85;;
68523;SDS011;55524;51.380;13.372;2022-10-31T00:33:44;7.45;;;3.60;;
68523;SDS011;55524;51.380;13.372;2022-10-31T00:36:12;10.95;;;3.58;;
68523;SDS011;55524;51.380;13.372;2022-10-31T00:38:41;6.90;;;3.47;;
68523;SDS011;55524;51.380;13.372;2022-10-31T00:41:08;6.25;;;3.47;;
68523;SDS011;55524;51.380;13.372;2022-10-31T00:43:36;9.85;;;3.35;;
68523;SDS011;55524;51.380;13.372;2022-10-31T00:46:02;6.75;;;3.70;;
68523;SDS011;55524;51.380;13.372;2022-10-31T00:48:29;8.07;;;4.00;;
68523;SDS011;55524;51.380;13.372;2022-10-31T00:50:55;5.18;;;3.17;;
68523;SDS011;55524;51.380;13.372;2022-10-31T00:53:24;7.15;;;3.83;;
68523;SDS011;55524;51.380;13.372;2022-10-31T00:55:51;7.05;;;3.28;;
68523;SDS011;55524;51.380;13.372;2022-10-31T00:58:17;7.97;;;3.40;;
68523;SDS011;55524;51.380;13.372;2022-10-31T01:00:43;8.45;;;4.32;;
68523;SDS011;55524;51.380;13.372;2022-10-31T01:03:19;7.78;;;3.50;;
68523;SDS011;55524;51.380;13.372;2022-10-31T01:05:54;8.48;;;4.03;;
68523;SDS011;55524;51.380;13.372;2022-10-31T01:08:22;5.95;;;2.92;;
68523;SDS011;55524;51.380;13.372;2022-10-31T01:11:02;5.82;;;3.42;;
68523;SDS011;55524;51.380;13.372;2022-10-31T01:13:31;4.63;;;3.20;;
68523;SDS011;55524;51.380;13.372;2022-10-31T01:15:58;12.80;;;3.85;;
68523;SDS011;55524;51.380;13.372;2022-10-31T01:18:25;9.02;;;3.85;;
68523;SDS011;55524;51.380;13.372;2022-10-31T01:23:37;11.07;;;4.13;;
68523;SDS011;55524;51.380;13.372;2022-10-31T01:26:05;5.13;;;3.30;;
68523;SDS011;55524;51.380;13.372;2022-10-31T01:28:44;8.20;;;3.40;;
68523;SDS011;55524;51.380;13.372;2022-10-31T01:31:16;7.45;;;3.70;;
68523;SDS011;55524;51.380;13.372;2022-10-31T01:33:44;10.40;;;3.70;;
68523;SDS011;55524;51.380;13.372;2022-10-31T01:36:14;9.88;;;4.18;;
68523;SDS011;55524;51.380;13.372;2022-10-31T01:38:43;5.53;;;3.42;;
68523;SDS011;55524;51.380;13.372;2022-10-31T01:41:15;13.30;;;3.95;;
68523;SDS011;55524;51.380;13.372;2022-10-31T01:43:58;5.65;;;3.55;;
68523;SDS011;55524;51.380;13.372;2022-10-31T01:49:40;5.57;;;3.22;;
68523;SDS011;55524;51.380;13.372;2022-10-31T01:52:32;7.80;;;3.70;;
68523;SDS011;55524;51.380;13.372;2022-10-31T01:55:11;4.97;;;3.53;;
68523;SDS011;55524;51.380;13.372;2022-10-31T01:57:43;7.18;;;3.40;;
68523;SDS011;55524;51.380;13.372;2022-10-31T02:00:12;5.85;;;3.60;;
68523;SDS011;55524;51.380;13.372;2022-10-31T02:02:42;5.18;;;3.08;;
68523;SDS011;55524;51.380;13.372;2022-10-31T02:05:12;6.80;;;3.70;;
68523;SDS011;55524;51.380;13.372;2022-10-31T02:08:02;6.95;;;3.60;;
68523;SDS011;55524;51.380;13.372;2022-10-31T02:10:33;6.53;;;3.75;;
68523;SDS011;55524;51.380;13.372;2022-10-31T02:13:05;9.75;;;3.63;;
68523;SDS011;55524;51.380;13.372;2022-10-31T02:15:33;6.60;;;3.75;;
68523;SDS011;55524;51.380;13.372;2022-10-31T02:18:02;4.20;;;3.80;;
68523;SDS011;55524;51.380;13.372;2022-10-31T02:20:32;6.63;;;3.35;;
68523;SDS011;55524;51.380;13.372;2022-10-31T02:23:25;6.65;;;3.55;;
68523;SDS011;55524;51.380;13.372;2022-10-31T02:26:36;7.38;;;3.47;;
68523;SDS011;55524;51.380;13.372;2022-10-31T02:37:45;5.43;;;3.45;;
68523;SDS011;55524;51.380;13.372;2022-10-31T02:40:25;8.38;;;3.35;;
68523;SDS011;55524;51.380;13.372;2022-10-31T02:49:00;10.00;;;4.28;;
68523;SDS011;55524;51.380;13.372;2022-10-31T02:51:33;5.13;;;3.53;;
68523;SDS011;55524;51.380;13.372;2022-10-31T02:54:00;6.03;;;3.60;;
68523;SDS011;55524;51.380;13.372;2022-10-31T02:56:26;10.13;;;3.60;;
68523;SDS011;55524;51.380;13.372;2022-10-31T02:58:53;4.13;;;2.92;;
68523;SDS011;55524;51.380;13.372;2022-10-31T03:04:34;8.43;;;3.25;;
68523;SDS011;55524;51.380;13.372;2022-10-31T03:11:03;7.68;;;3.42;;
68523;SDS011;55524;51.380;13.372;2022-10-31T03:15:37;3.92;;;3.40;;
68523;SDS011;55524;51.380;13.372;2022-10-31T03:18:09;5.60;;;3.65;;
68523;SDS011;55524;51.380;13.372;2022-10-31T03:20:57;5.45;;;3.50;;
68523;SDS011;55524;51.380;13.372;2022-10-31T03:23:37;8.60;;;3.50;;
68523;SDS011;55524;51.380;13.372;2022-10-31T03:26:05;5.68;;;3.70;;
68523;SDS011;55524;51.380;13.372;2022-10-31T03:28:35;4.22;;;3.08;;
68523;SDS011;55524;51.380;13.372;2022-10-31T03:31:07;4.70;;;3.15;;
68523;SDS011;55524;51.380;13.372;2022-10-31T03:33:35;7.95;;;3.67;;
68523;SDS011;55524;51.380;13.372;2022-10-31T03:36:04;6.47;;;3.50;;
68523;SDS011;55524;51.380;13.372;2022-10-31T03:38:35;9.35;;;3.20;;
68523;SDS011;55524;51.380;13.372;2022-10-31T03:41:03;8.43;;;3.80;;
68523;SDS011;55524;51.380;13.372;2022-10-31T03:43:33;11.25;;;3.78;;
68523;SDS011;55524;51.380;13.372;2022-10-31T03:46:06;6.35;;;3.42;;
68523;SDS011;55524;51.380;13.372;2022-10-31T03:48:32;9.25;;;3.65;;
68523;SDS011;55524;51.380;13.372;2022-10-31T03:53:39;6.38;;;3.10;;
68523;SDS011;55524;51.380;13.372;2022-10-31T03:56:20;4.38;;;3.28;;
68523;SDS011;55524;51.380;13.372;2022-10-31T03:58:59;4.97;;;3.40;;
68523;SDS011;55524;51.380;13.372;2022-10-31T04:01:32;4.68;;;3.33;;
68523;SDS011;55524;51.380;13.372;2022-10-31T04:04:04;6.97;;;3.83;;
68523;SDS011;55524;51.380;13.372;2022-10-31T04:06:31;7.38;;;3.63;;
68523;SDS011;55524;51.380;13.372;2022-10-31T04:09:03;5.88;;;3.58;;
68523;SDS011;55524;51.380;13.372;2022-10-31T04:11:33;5.97;;;3.70;;
68523;SDS011;55524;51.380;13.372;2022-10-31T04:14:07;7.40;;;3.92;;
68523;SDS011;55524;51.380;13.372;2022-10-31T04:16:35;5.13;;;3.55;;
68523;SDS011;55524;51.380;13.372;2022-10-31T04:19:01;5.38;;;3.55;;
68523;SDS011;55524;51.380;13.372;2022-10-31T04:21:28;7.97;;;3.75;;
68523;SDS011;55524;51.380;13.372;2022-10-31T04:23:56;8.55;;;4.00;;
68523;SDS011;55524;51.380;13.372;2022-10-31T04:26:22;6.20;;;3.63;;
68523;SDS011;55524;51.380;13.372;2022-10-31T04:28:49;6.53;;;3.25;;
68523;SDS011;55524;51.380;13.372;2022-10-31T04:31:15;8.63;;;3.58;;
68523;SDS011;55524;51.380;13.372;2022-10-31T04:33:41;7.65;;;3.30;;
68523;SDS011;55524;51.380;13.372;2022-10-31T04:36:08;9.48;;;3.38;;
68523;SDS011;55524;51.380;13.372;2022-10-31T04:38:34;9.90;;;4.03;;
68523;SDS011;55524;51.380;13.372;2022-10-31T04:41:00;5.32;;;3.65;;
68523;SDS011;55524;51.380;13.372;2022-10-31T04:43:26;8.15;;;3.25;;
68523;SDS011;55524;51.380;13.372;2022-10-31T04:45:53;13.07;;;4.13;;
68523;SDS011;55524;51.380;13.372;2022-10-31T04:48:19;9.45;;;3.60;;
68523;SDS011;55524;51.380;13.372;2022-10-31T04:50:45;7.43;;;3.92;;
68523;SDS011;55524;51.380;13.372;2022-10-31T04:53:11;5.97;;;4.18;;
68523;SDS011;55524;51.380;13.372;2022-10-31T04:55:38;4.22;;;3.50;;
68523;SDS011;55524;51.380;13.372;2022-10-31T04:58:04;11.75;;;4.13;;
68523;SDS011;55524;51.380;13.372;2022-10-31T05:00:30;10.07;;;4.15;;
68523;SDS011;55524;51.380;13.372;2022-10-31T05:02:57;7.07;;;4.03;;
68523;SDS011;55524;51.380;13.372;2022-10-31T05:05:25;7.95;;;3.72;;
68523;SDS011;55524;51.380;13.372;2022-10-31T05:07:53;10.80;;;3.78;;
68523;SDS011;55524;51.380;13.372;2022-10-31T05:10:20;7.80;;;4.00;;
68523;SDS011;55524;51.380;13.372;2022-10-31T05:12:50;8.13;;;3.95;;
68523;SDS011;55524;51.380;13.372;2022-10-31T05:15:21;5.63;;;3.50;;
68523;SDS011;55524;51.380;13.372;2022-10-31T05:17:49;5.68;;;3.60;;
68523;SDS011;55524;51.380;13.372;2022-10-31T05:20:16;6.63;;;4.20;;
68523;SDS011;55524;51.380;13.372;2022-10-31T05:22:45;5.40;;;3.63;;
68523;SDS011;55524;51.380;13.372;2022-10-31T05:25:22;10.02;;;3.88;;
68523;SDS011;55524;51.380;13.372;2022-10-31T05:27:51;7.88;;;3.97;;
68523;SDS011;55524;51.380;13.372;2022-10-31T05:30:22;10.13;;;4.05;;
68523;SDS011;55524;51.380;13.372;2022-10-31T05:32:51;8.77;;;4.10;;
68523;SDS011;55524;51.380;13.372;2022-10-31T05:35:18;6.35;;;3.78;;
68523;SDS011;55524;51.380;13.372;2022-10-31T05:37:46;8.65;;;4.07;;
68523;SDS011;55524;51.380;13.372;2022-10-31T05:40:13;6.00;;;3.63;;
68523;SDS011;55524;51.380;13.372;2022-10-31T05:42:41;8.93;;;4.72;;
68523;SDS011;55524;51.380;13.372;2022-10-31T05:45:09;6.30;;;4.22;;
68523;SDS011;55524;51.380;13.372;2022-10-31T05:47:37;5.68;;;4.40;;
68523;SDS011;55524;51.380;13.372;2022-10-31T05:50:03;8.00;;;4.40;;
68523;SDS011;55524;51.380;13.372;2022-10-31T05:52:31;8.38;;;4.60;;
68523;SDS011;55524;51.380;13.372;2022-10-31T05:54:57;8.23;;;4.45;;
68523;SDS011;55524;51.380;13.372;2022-10-31T05:57:23;7.30;;;4.20;;
68523;SDS011;55524;51.380;13.372;2022-10-31T05:59:53;7.68;;;4.43;;
68523;SDS011;55524;51.380;13.372;2022-10-31T06:02:19;9.93;;;4.22;;
68523;SDS011;55524;51.380;13.372;2022-10-31T06:04:46;9.80;;;4.53;;
68523;SDS011;55524;51.380;13.372;2022-10-31T06:07:12;6.95;;;3.80;;
68523;SDS011;55524;51.380;13.372;2022-10-31T06:09:38;9.77;;;4.57;;
68523;SDS011;55524;51.380;13.372;2022-10-31T06:12:04;8.05;;;4.07;;
68523;SDS011;55524;51.380;13.372;2022-10-31T06:14:31;10.77;;;4.32;;
68523;SDS011;55524;51.380;13.372;2022-10-31T06:16:57;10.25;;;3.90;;
68523;SDS011;55524;51.380;13.372;2022-10-31T06:19:23;8.20;;;4.30;;
68523;SDS011;55524;51.380;13.372;2022-10-31T06:21:50;7.88;;;4.15;;
68523;SDS011;55524;51.380;13.372;2022-10-31T06:24:16;11.10;;;4.25;;
68523;SDS011;55524;51.380;13.372;2022-10-31T06:26:42;42.53;;;5.75;;
68523;SDS011;55524;51.380;13.372;2022-10-31T06:29:09;26.25;;;4.78;;
68523;SDS011;55524;51.380;13.372;2022-10-31T06:31:35;13.25;;;4.10;;
68523;SDS011;55524;51.380;13.372;2022-10-31T06:34:01;57.15;;;7.72;;
68523;SDS011;55524;51.380;13.372;2022-10-31T06:36:27;17.13;;;4.10;;
68523;SDS011;55524;51.380;13.372;2022-10-31T06:38:54;25.15;;;5.43;;
68523;SDS011;55524;51.380;13.372;2022-10-31T06:41:20;14.52;;;4.78;;
68523;SDS011;55524;51.380;13.372;2022-10-31T06:43:46;18.27;;;4.88;;
68523;SDS011;55524;51.380;13.372;2022-10-31T06:46:12;8.70;;;4.43;;
68523;SDS011;55524;51.380;13.372;2022-10-31T06:48:48;7.78;;;4.35;;
68523;SDS011;55524;51.380;13.372;2022-10-31T06:51:14;11.02;;;4.25;;
68523;SDS011;55524;51.380;13.372;2022-10-31T06:53:40;42.05;;;6.97;;
68523;SDS011;55524;51.380;13.372;2022-10-31T06:56:07;19.10;;;5.05;;
68523;SDS011;55524;51.380;13.372;2022-10-31T06:58:33;11.23;;;4.65;;
68523;SDS011;55524;51.380;13.372;2022-10-31T07:00:59;19.10;;;4.95;;
68523;SDS011;55524;51.380;13.372;2022-10-31T07:03:26;15.85;;;4.95;;
68523;SDS011;55524;51.380;13.372;2022-10-31T07:05:54;34.05;;;6.88;;
68523;SDS011;55524;51.380;13.372;2022-10-31T07:08:21;11.13;;;5.00;;
68523;SDS011;55524;51.380;13.372;2022-10-31T07:10:52;14.35;;;4.85;;
68523;SDS011;55524;51.380;13.372;2022-10-31T07:13:19;14.07;;;5.10;;
68523;SDS011;55524;51.380;13.372;2022-10-31T07:15:50;12.27;;;5.32;;
68523;SDS011;55524;51.380;13.372;2022-10-31T07:18:27;8.18;;;4.70;;
68523;SDS011;55524;51.380;13.372;2022-10-31T07:20:54;13.15;;;4.97;;
68523;SDS011;55524;51.380;13.372;2022-10-31T07:23:21;17.05;;;5.25;;
68523;SDS011;55524;51.380;13.372;2022-10-31T07:25:47;19.52;;;5.80;;
68523;SDS011;55524;51.380;13.372;2022-10-31T07:30:49;19.70;;;4.95;;
68523;SDS011;55524;51.380;13.372;2022-10-31T07:33:16;30.88;;;5.57;;
68523;SDS011;55524;51.380;13.372;2022-10-31T07:35:44;21.42;;;4.75;;
68523;SDS011;55524;51.380;13.372;2022-10-31T07:38:12;10.00;;;4.38;;
68523;SDS011;55524;51.380;13.372;2022-10-31T07:40:51;5.90;;;3.80;;
68523;SDS011;55524;51.380;13.372;2022-10-31T07:43:19;6.57;;;3.53;;
68523;SDS011;55524;51.380;13.372;2022-10-31T07:45:52;6.13;;;3.50;;
68523;SDS011;55524;51.380;13.372;2022-10-31T07:48:19;6.78;;;3.90;;
68523;SDS011;55524;51.380;13.372;2022-10-31T07:50:45;11.38;;;4.53;;
68523;SDS011;55524;51.380;13.372;2022-10-31T07:53:12;10.65;;;3.70;;
68523;SDS011;55524;51.380;13.372;2022-10-31T07:55:39;16.85;;;4.40;;
68523;SDS011;55524;51.380;13.372;2022-10-31T07:58:07;10.18;;;4.63;;
68523;SDS011;55524;51.380;13.372;2022-10-31T08:00:34;12.52;;;4.30;;
68523;SDS011;55524;51.380;13.372;2022-10-31T08:03:04;9.60;;;3.92;;
68523;SDS011;55524;51.380;13.372;2022-10-31T08:05:35;15.07;;;4.63;;
68523;SDS011;55524;51.380;13.372;2022-10-31T08:08:03;12.90;;;5.03;;
68523;SDS011;55524;51.380;13.372;2022-10-31T08:10:30;17.17;;;4.75;;
68523;SDS011;55524;51.380;13.372;2022-10-31T08:12:57;11.15;;;4.82;;
68523;SDS011;55524;51.380;13.372;2022-10-31T08:15:34;28.50;;;5.22;;
68523;SDS011;55524;51.380;13.372;2022-10-31T08:18:03;32.97;;;5.30;;
68523;SDS011;55524;51.380;13.372;2022-10-31T08:21:19;29.35;;;5.15;;
68523;SDS011;55524;51.380;13.372;2022-10-31T08:23:49;7.80;;;4.10;;
68523;SDS011;55524;51.380;13.372;2022-10-31T08:26:15;13.50;;;4.30;;
68523;SDS011;55524;51.380;13.372;2022-10-31T08:28:41;14.98;;;4.35;;
68523;SDS011;55524;51.380;13.372;2022-10-31T08:31:11;14.95;;;4.38;;
68523;SDS011;55524;51.380;13.372;2022-10-31T08:33:58;9.23;;;3.83;;
68523;SDS011;55524;51.380;13.372;2022-10-31T08:36:44;14.85;;;4.20;;
68523;SDS011;55524;51.380;13.372;2022-10-31T08:39:38;23.90;;;5.25;;
68523;SDS011;55524;51.380;13.372;2022-10-31T08:42:04;10.05;;;4.15;;
68523;SDS011;55524;51.380;13.372;2022-10-31T08:44:31;38.00;;;7.65;;
68523;SDS011;55524;51.380;13.372;2022-10-31T08:46:57;17.50;;;4.22;;
68523;SDS011;55524;51.380;13.372;2022-10-31T08:49:44;14.27;;;4.85;;
68523;SDS011;55524;51.380;13.372;2022-10-31T08:52:22;12.75;;;4.38;;
68523;SDS011;55524;51.380;13.372;2022-10-31T08:54:50;15.48;;;4.28;;
68523;SDS011;55524;51.380;13.372;2022-10-31T08:57:16;14.25;;;4.20;;
68523;SDS011;55524;51.380;13.372;2022-10-31T08:59:42;19.52;;;5.47;;
68523;SDS011;55524;51.380;13.372;2022-10-31T09:02:29;18.13;;;4.97;;
68523;SDS011;55524;51.380;13.372;2022-10-31T09:05:36;17.42;;;4.13;;
68523;SDS011;55524;51.380;13.372;2022-10-31T09:08:03;8.63;;;4.00;;
68523;SDS011;55524;51.380;13.372;2022-10-31T09:10:31;10.18;;;4.18;;
68523;SDS011;55524;51.380;13.372;2022-10-31T09:13:17;17.75;;;5.35;;
68523;SDS011;55524;51.380;13.372;2022-10-31T09:15:48;14.10;;;4.13;;
68523;SDS011;55524;51.380;13.372;2022-10-31T09:18:16;12.57;;;5.13;;
68523;SDS011;55524;51.380;13.372;2022-10-31T09:20:44;15.25;;;5.40;;
68523;SDS011;55524;51.380;13.372;2022-10-31T09:25:40;16.40;;;5.38;;
68523;SDS011;55524;51.380;13.372;2022-10-31T09:28:08;30.52;;;6.75;;
68523;SDS011;55524;51.380;13.372;2022-10-31T09:30:54;16.27;;;5.70;;
68523;SDS011;55524;51.380;13.372;2022-10-31T09:33:21;28.95;;;7.50;;
68523;SDS011;55524;51.380;13.372;2022-10-31T09:35:47;14.15;;;6.65;;
68523;SDS011;55524;51.380;13.372;2022-10-31T09:38:15;24.67;;;7.75;;
68523;SDS011;55524;51.380;13.372;2022-10-31T09:40:48;20.88;;;7.22;;
68523;SDS011;55524;51.380;13.372;2022-10-31T09:52:21;76.65;;;28.83;;
68523;SDS011;55524;51.380;13.372;2022-10-31T09:55:05;35.85;;;16.42;;
68523;SDS011;55524;51.380;13.372;2022-10-31T09:57:41;83.43;;;41.65;;
68523;SDS011;55524;51.380;13.372;2022-10-31T10:00:14;23.83;;;11.70;;
68523;SDS011;55524;51.380;13.372;2022-10-31T10:02:44;26.27;;;10.60;;
68523;SDS011;55524;51.380;13.372;2022-10-31T10:08:20;36.00;;;16.48;;
68523;SDS011;55524;51.380;13.372;2022-10-31T10:10:55;22.73;;;13.30;;
68523;SDS011;55524;51.380;13.372;2022-10-31T10:22:25;16.65;;;7.80;;
68523;SDS011;55524;51.380;13.372;2022-10-31T10:25:12;20.77;;;8.00;;
68523;SDS011;55524;51.380;13.372;2022-10-31T10:27:59;19.92;;;9.18;;
68523;SDS011;55524;51.380;13.372;2022-10-31T10:30:49;20.38;;;8.88;;
68523;SDS011;55524;51.380;13.372;2022-10-31T10:33:30;19.92;;;9.25;;
68523;SDS011;55524;51.380;13.372;2022-10-31T10:36:06;20.90;;;8.27;;
68523;SDS011;55524;51.380;13.372;2022-10-31T10:39:01;17.65;;;8.55;;
68523;SDS011;55524;51.380;13.372;2022-10-31T10:41:37;14.73;;;7.40;;
68523;SDS011;55524;51.380;13.372;2022-10-31T10:46:42;20.50;;;7.53;;
68523;SDS011;55524;51.380;13.372;2022-10-31T10:49:36;18.85;;;7.35;;
68523;SDS011;55524;51.380;13.372;2022-10-31T10:58:03;28.50;;;8.40;;
68523;SDS011;55524;51.380;13.372;2022-10-31T11:03:11;11.43;;;6.50;;
68523;SDS011;55524;51.380;13.372;2022-10-31T11:05:55;16.50;;;7.13;;
68523;SDS011;55524;51.380;13.372;2022-10-31T11:14:05;15.20;;;6.50;;
68523;SDS011;55524;51.380;13.372;2022-10-31T11:16:40;17.90;;;7.43;;
68523;SDS011;55524;51.380;13.372;2022-10-31T11:19:16;18.08;;;7.30;;
68523;SDS011;55524;51.380;13.372;2022-10-31T11:21:46;22.08;;;8.63;;
68523;SDS011;55524;51.380;13.372;2022-10-31T11:24:21;15.20;;;7.53;;
68523;SDS011;55524;51.380;13.372;2022-10-31T11:27:02;17.25;;;7.95;;
68523;SDS011;55524;51.380;13.372;2022-10-31T11:29:39;19.25;;;8.05;;
68523;SDS011;55524;51.380;13.372;2022-10-31T11:32:28;17.88;;;7.63;;
68523;SDS011;55524;51.380;13.372;2022-10-31T11:35:13;15.82;;;7.85;;
68523;SDS011;55524;51.380;13.372;2022-10-31T11:37:45;16.17;;;8.00;;
68523;SDS011;55524;51.380;13.372;2022-10-31T11:40:18;17.58;;;8.45;;
68523;SDS011;55524;51.380;13.372;2022-10-31T11:43:15;17.95;;;7.45;;
68523;SDS011;55524;51.380;13.372;2022-10-31T11:45:46;24.48;;;8.85;;
68523;SDS011;55524;51.380;13.372;2022-10-31T11:48:23;18.95;;;7.90;;
68523;SDS011;55524;51.380;13.372;2022-10-31T11:51:02;24.80;;;8.13;;
68523;SDS011;55524;51.380;13.372;2022-10-31T11:53:30;16.90;;;7.70;;
68523;SDS011;55524;51.380;13.372;2022-10-31T11:56:00;14.88;;;7.82;;
68523;SDS011;55524;51.380;13.372;2022-10-31T11:58:38;22.83;;;9.23;;
68523;SDS011;55524;51.380;13.372;2022-10-31T12:01:05;16.67;;;7.97;;
68523;SDS011;55524;51.380;13.372;2022-10-31T12:03:48;15.52;;;8.25;;
68523;SDS011;55524;51.380;13.372;2022-10-31T12:06:34;20.85;;;8.10;;
68523;SDS011;55524;51.380;13.372;2022-10-31T12:09:16;16.83;;;8.70;;
68523;SDS011;55524;51.380;13.372;2022-10-31T12:12:19;15.20;;;8.38;;
68523;SDS011;55524;51.380;13.372;2022-10-31T12:14:52;17.40;;;8.48;;
68523;SDS011;55524;51.380;13.372;2022-10-31T12:17:40;25.65;;;9.43;;
68523;SDS011;55524;51.380;13.372;2022-10-31T12:26:22;15.88;;;8.20;;
68523;SDS011;55524;51.380;13.372;2022-10-31T12:32:20;18.30;;;8.35;;
68523;SDS011;55524;51.380;13.372;2022-10-31T12:35:03;18.85;;;7.93;;
68523;SDS011;55524;51.380;13.372;2022-10-31T12:48:44;18.15;;;8.25;;
68523;SDS011;55524;51.380;13.372;2022-10-31T12:51:36;19.05;;;7.97;;
68523;SDS011;55524;51.380;13.372;2022-10-31T13:00:17;24.15;;;8.38;;
68523;SDS011;55524;51.380;13.372;2022-10-31T13:06:12;24.60;;;8.93;;
68523;SDS011;55524;51.380;13.372;2022-10-31T13:11:58;19.10;;;7.45;;
68523;SDS011;55524;51.380;13.372;2022-10-31T13:14:44;22.58;;;8.98;;
68523;SDS011;55524;51.380;13.372;2022-10-31T13:17:27;18.70;;;8.00;;
68523;SDS011;55524;51.380;13.372;2022-10-31T13:19:59;16.58;;;8.35;;
68523;SDS011;55524;51.380;13.372;2022-10-31T13:22:50;18.02;;;7.57;;
68523;SDS011;55524;51.380;13.372;2022-10-31T13:25:39;19.13;;;8.57;;
68523;SDS011;55524;51.380;13.372;2022-10-31T13:30:58;17.88;;;7.85;;
68523;SDS011;55524;51.380;13.372;2022-10-31T13:33:32;11.25;;;7.82;;
68523;SDS011;55524;51.380;13.372;2022-10-31T16:40:53;22.45;;;11.98;;
68523;SDS011;55524;51.380;13.372;2022-10-31T16:43:40;22.75;;;12.77;;
68523;SDS011;55524;51.380;13.372;2022-10-31T16:48:59;26.17;;;11.55;;
68523;SDS011;55524;51.380;13.372;2022-10-31T16:51:56;23.70;;;12.45;;
68523;SDS011;55524;51.380;13.372;2022-10-31T16:57:50;22.48;;;11.30;;
68523;SDS011;55524;51.380;13.372;2022-10-31T17:00:40;19.43;;;11.63;;
68523;SDS011;55524;51.380;13.372;2022-10-31T17:03:07;27.45;;;13.50;;
68523;SDS011;55524;51.380;13.372;2022-10-31T17:06:01;29.15;;;15.02;;
68523;SDS011;55524;51.380;13.372;2022-10-31T17:08:50;31.10;;;15.40;;
68523;SDS011;55524;51.380;13.372;2022-10-31T17:11:28;29.95;;;14.80;;
68523;SDS011;55524;51.380;13.372;2022-10-31T17:13:54;31.35;;;14.68;;
68523;SDS011;55524;51.380;13.372;2022-10-31T17:16:50;25.33;;;13.55;;
68523;SDS011;55524;51.380;13.372;2022-10-31T17:19:36;28.95;;;13.70;;
68523;SDS011;55524;51.380;13.372;2022-10-31T17:22:08;26.95;;;13.60;;
68523;SDS011;55524;51.380;13.372;2022-10-31T17:24:52;25.48;;;13.35;;
68523;SDS011;55524;51.380;13.372;2022-10-31T17:27:39;28.17;;;13.80;;
68523;SDS011;55524;51.380;13.372;2022-10-31T17:30:26;25.73;;;13.88;;
68523;SDS011;55524;51.380;13.372;2022-10-31T17:33:14;32.45;;;13.02;;
68523;SDS011;55524;51.380;13.372;2022-10-31T17:36:06;25.23;;;13.40;;
68523;SDS011;55524;51.380;13.372;2022-10-31T17:39:15;30.20;;;14.48;;
68523;SDS011;55524;51.380;13.372;2022-10-31T17:42:05;30.88;;;15.45;;
68523;SDS011;55524;51.380;13.372;2022-10-31T17:45:14;26.77;;;14.93;;
68523;SDS011;55524;51.380;13.372;2022-10-31T17:48:24;32.60;;;15.10;;
68523;SDS011;55524;51.380;13.372;2022-10-31T17:51:24;24.33;;;14.77;;
68523;SDS011;55524;51.380;13.372;2022-10-31T17:54:05;31.65;;;16.10;;
68523;SDS011;55524;51.380;13.372;2022-10-31T17:57:29;29.13;;;15.68;;
68523;SDS011;55524;51.380;13.372;2022-10-31T18:00:15;30.75;;;16.50;;
68523;SDS011;55524;51.380;13.372;2022-10-31T18:03:25;31.40;;;17.13;;
68523;SDS011;55524;51.380;13.372;2022-10-31T18:06:17;33.47;;;17.52;;
68523;SDS011;55524;51.380;13.372;2022-10-31T18:09:26;32.88;;;16.83;;
68523;SDS011;55524;51.380;13.372;2022-10-31T18:12:54;30.67;;;17.73;;
68523;SDS011;55524;51.380;13.372;2022-10-31T18:15:37;39.63;;;22.73;;
68523;SDS011;55524;51.380;13.372;2022-10-31T18:18:26;36.13;;;21.88;;
68523;SDS011;55524;51.380;13.372;2022-10-31T18:21:16;39.65;;;21.50;;
68523;SDS011;55524;51.380;13.372;2022-10-31T18:24:09;39.10;;;20.48;;
68523;SDS011;55524;51.380;13.372;2022-10-31T18:26:44;39.13;;;17.52;;
68523;SDS011;55524;51.380;13.372;2022-10-31T18:29:38;34.90;;;17.75;;
68523;SDS011;55524;51.380;13.372;2022-10-31T18:32:32;33.20;;;17.45;;
68523;SDS011;55524;51.380;13.372;2022-10-31T18:36:02;25.58;;;17.58;;
68523;SDS011;55524;51.380;13.372;2022-10-31T18:39:00;25.73;;;15.35;;
68523;SDS011;55524;51.380;13.372;2022-10-31T18:41:52;29.75;;;15.50;;
68523;SDS011;55524;51.380;13.372;2022-10-31T18:44:42;27.25;;;16.20;;
68523;SDS011;55524;51.380;13.372;2022-10-31T18:47:31;29.85;;;16.45;;
68523;SDS011;55524;51.380;13.372;2022-10-31T18:50:21;26.85;;;16.95;;
68523;SDS011;55524;51.380;13.372;2022-10-31T18:52:56;34.30;;;16.40;;
68523;SDS011;55524;51.380;13.372;2022-10-31T18:56:21;30.65;;;15.30;;
68523;SDS011;55524;51.380;13.372;2022-10-31T18:59:28;28.13;;;14.68;;
68523;SDS011;55524;51.380;13.372;2022-10-31T19:01:57;34.45;;;15.73;;
68523;SDS011;55524;51.380;13.372;2022-10-31T19:04:35;29.42;;;17.33;;
68523;SDS011;55524;51.380;13.372;2022-10-31T19:07:44;36.40;;;20.70;;
68523;SDS011;55524;51.380;13.372;2022-10-31T19:10:40;35.35;;;19.95;;
68523;SDS011;55524;51.380;13.372;2022-10-31T19:13:29;36.05;;;18.13;;
68523;SDS011;55524;51.380;13.372;2022-10-31T19:16:06;37.15;;;17.27;;
68523;SDS011;55524;51.380;13.372;2022-10-31T19:18:59;30.63;;;15.85;;
68523;SDS011;55524;51.380;13.372;2022-10-31T19:21:51;29.02;;;15.02;;
68523;SDS011;55524;51.380;13.372;2022-10-31T19:24:29;34.97;;;16.17;;
68523;SDS011;55524;51.380;13.372;2022-10-31T19:27:15;32.40;;;17.27;;
68523;SDS011;55524;51.380;13.372;2022-10-31T19:30:14;41.00;;;18.73;;
68523;SDS011;55524;51.380;13.372;2022-10-31T19:33:07;31.25;;;16.60;;
68523;SDS011;55524;51.380;13.372;2022-10-31T19:36:15;38.58;;;17.40;;
68523;SDS011;55524;51.380;13.372;2022-10-31T19:39:08;29.92;;;17.52;;
68523;SDS011;55524;51.380;13.372;2022-10-31T19:42:17;33.00;;;16.63;;
68523;SDS011;55524;51.380;13.372;2022-10-31T19:48:14;26.73;;;16.38;;
68523;SDS011;55524;51.380;13.372;2022-10-31T19:51:04;32.38;;;15.73;;
68523;SDS011;55524;51.380;13.372;2022-10-31T19:54:14;29.45;;;14.90;;
68523;SDS011;55524;51.380;13.372;2022-10-31T19:57:24;27.88;;;15.98;;
68523;SDS011;55524;51.380;13.372;2022-10-31T20:00:14;35.10;;;15.52;;
68523;SDS011;55524;51.380;13.372;2022-10-31T20:03:10;29.58;;;14.93;;
68523;SDS011;55524;51.380;13.372;2022-10-31T20:05:45;29.52;;;15.82;;
68523;SDS011;55524;51.380;13.372;2022-10-31T20:08:34;29.95;;;15.55;;
68523;SDS011;55524;51.380;13.372;2022-10-31T20:11:42;27.70;;;15.75;;
68523;SDS011;55524;51.380;13.372;2022-10-31T20:14:52;32.00;;;18.00;;
68523;SDS011;55524;51.380;13.372;2022-10-31T20:17:41;29.73;;;17.20;;
68523;SDS011;55524;51.380;13.372;2022-10-31T20:20:11;25.48;;;16.10;;
68523;SDS011;55524;51.380;13.372;2022-10-31T20:23:01;28.88;;;17.23;;
68523;SDS011;55524;51.380;13.372;2022-10-31T20:26:11;30.17;;;15.73;;